createdAt,value
2022-10-16T00:02:16.438Z,13.30
2022-10-16T00:07:19.274Z,13.30
2022-10-16T00:12:22.228Z,13.28
2022-10-16T00:17:25.070Z,13.26
2022-10-16T00:22:28.139Z,13.20
2022-10-16T00:27:31.227Z,13.16
2022-10-16T00:32:34.200Z,13.17
2022-10-16T00:37:37.027Z,13.17
2022-10-16T00:42:40.115Z,13.18
2022-10-16T00:47:50.130Z,13.17
2022-10-16T00:52:53.343Z,13.11
2022-10-16T00:57:56.982Z,13.04
2022-10-16T01:03:01.365Z,13.02
2022-10-16T01:08:15.239Z,12.94
2022-10-16T01:13:26.007Z,12.83
2022-10-16T01:18:35.029Z,12.76
2022-10-16T01:24:02.690Z,12.64
2022-10-16T01:29:20.167Z,12.51
2022-10-16T01:34:34.640Z,12.42
2022-10-16T01:39:40.877Z,12.29
2022-10-16T01:44:44.736Z,12.16
2022-10-16T01:49:47.781Z,12.05
2022-10-16T01:54:51.975Z,11.92
2022-10-16T01:59:57.644Z,11.75
2022-10-16T02:05:12.219Z,11.63
2022-10-16T02:10:15.147Z,11.50
2022-10-16T02:15:17.871Z,11.43
2022-10-16T02:20:26.231Z,11.33
2022-10-16T02:25:33.389Z,11.23
2022-10-16T02:30:53.874Z,11.12
2022-10-16T02:35:58.180Z,10.97
2022-10-16T02:41:01.402Z,10.90
2022-10-16T02:46:04.325Z,10.82
2022-10-16T02:51:07.429Z,10.75
2022-10-16T02:56:10.326Z,10.68
2022-10-16T03:01:13.829Z,10.62
2022-10-16T03:06:16.497Z,10.58
2022-10-16T03:11:19.302Z,10.47
2022-10-16T03:16:22.141Z,10.36
2022-10-16T03:21:25.871Z,10.27
2022-10-16T03:26:28.698Z,10.17
2022-10-16T03:31:31.791Z,10.09
2022-10-16T03:36:34.783Z,9.99
2022-10-16T03:41:38.134Z,9.93
2022-10-16T03:46:40.973Z,9.86
2022-10-16T03:51:43.821Z,9.80
2022-10-16T03:56:46.686Z,9.70
2022-10-16T04:01:49.473Z,9.55
2022-10-16T04:06:52.523Z,9.52
2022-10-16T04:11:55.354Z,9.45
2022-10-16T04:16:58.067Z,9.39
2022-10-16T04:22:00.833Z,9.37
2022-10-16T04:27:03.917Z,9.34
2022-10-16T04:32:06.770Z,9.24
2022-10-16T04:37:09.341Z,9.20
2022-10-16T04:42:12.479Z,9.16
2022-10-16T04:47:15.314Z,9.12
2022-10-16T04:52:19.869Z,9.00
2022-10-16T04:57:22.556Z,8.92
2022-10-16T05:02:25.783Z,8.89
2022-10-16T05:07:28.945Z,8.86
2022-10-16T05:12:32.049Z,8.82
2022-10-16T05:17:34.923Z,8.78
2022-10-16T05:22:37.757Z,8.74
2022-10-16T05:27:40.337Z,8.73
2022-10-16T05:32:43.221Z,8.70
2022-10-16T05:37:47.795Z,8.72
2022-10-16T05:42:55.330Z,8.79
2022-10-16T05:47:58.098Z,8.85
2022-10-16T05:53:01.000Z,8.91
2022-10-16T05:58:03.856Z,8.96
2022-10-16T06:03:07.932Z,9.08
2022-10-16T06:08:10.789Z,9.19
2022-10-16T06:13:14.649Z,9.36
2022-10-16T06:18:17.495Z,9.55
2022-10-16T06:23:20.380Z,9.75
2022-10-16T06:28:23.355Z,9.98
2022-10-16T06:33:26.359Z,10.19
2022-10-16T06:38:29.253Z,10.40
2022-10-16T06:43:33.201Z,10.65
2022-10-16T06:48:36.095Z,10.87
2022-10-16T06:53:54.867Z,11.09
2022-10-16T06:59:04.387Z,11.38
2022-10-16T07:04:07.167Z,11.60
2022-10-16T07:09:11.585Z,11.80
2022-10-16T07:14:19.134Z,11.99
2022-10-16T07:19:22.307Z,12.24
2022-10-16T07:24:25.895Z,12.83
2022-10-16T07:29:28.746Z,13.21
2022-10-16T07:34:31.500Z,13.30
2022-10-16T07:39:34.815Z,13.38
2022-10-16T07:44:38.220Z,13.38
2022-10-16T07:49:41.029Z,13.41
2022-10-16T07:54:43.879Z,13.46
2022-10-16T07:59:47.415Z,13.64
2022-10-16T08:04:51.310Z,13.89
2022-10-16T08:09:54.130Z,14.05
2022-10-16T08:14:56.842Z,14.11
2022-10-16T08:19:59.682Z,14.19
2022-10-16T08:25:02.634Z,14.33
2022-10-16T08:30:05.810Z,14.40
2022-10-16T08:35:10.793Z,14.52
2022-10-16T08:40:28.964Z,14.75
2022-10-16T08:45:50.206Z,14.76
2022-10-16T08:50:53.934Z,14.93
2022-10-16T08:55:57.060Z,15.07
2022-10-16T09:01:21.564Z,15.14
2022-10-16T09:06:30.385Z,15.25
2022-10-16T09:11:54.910Z,15.45
2022-10-16T09:17:04.681Z,15.55
2022-10-16T09:22:18.038Z,15.76
2022-10-16T09:27:21.001Z,15.97
2022-10-16T09:32:24.215Z,16.17
2022-10-16T09:37:27.798Z,16.46
2022-10-16T09:42:37.803Z,16.72
2022-10-16T09:47:43.580Z,17.00
2022-10-16T09:52:46.330Z,17.15
2022-10-16T09:57:53.139Z,17.47
2022-10-16T10:02:56.355Z,17.74
2022-10-16T10:08:01.402Z,17.91
2022-10-16T10:13:04.379Z,17.87
2022-10-16T10:18:18.746Z,18.08
2022-10-16T10:23:23.837Z,18.31
2022-10-16T10:28:54.957Z,18.59
2022-10-16T10:34:19.478Z,18.70
2022-10-16T10:39:29.022Z,19.11
2022-10-16T10:44:43.804Z,19.66
2022-10-16T10:50:07.433Z,20.25
2022-10-16T10:55:21.459Z,20.82
2022-10-16T11:00:45.478Z,21.33
2022-10-16T11:05:57.666Z,22.41
2022-10-16T11:11:32.349Z,23.25
2022-10-16T11:16:47.943Z,23.91
2022-10-16T11:22:07.580Z,24.18
2022-10-16T11:27:16.340Z,24.23
2022-10-16T11:32:26.319Z,24.37
2022-10-16T11:37:33.425Z,24.34
2022-10-16T11:42:45.559Z,24.12
2022-10-16T11:48:10.121Z,23.86
2022-10-16T11:53:24.622Z,23.28
2022-10-16T11:58:53.229Z,22.49
2022-10-16T12:04:14.730Z,21.84
2022-10-16T12:09:31.818Z,21.25
2022-10-16T12:14:42.980Z,20.90
2022-10-16T12:20:00.939Z,20.59
2022-10-16T12:25:04.126Z,20.32
2022-10-16T12:30:07.542Z,20.08
2022-10-16T12:35:25.059Z,19.97
2022-10-16T12:40:27.666Z,19.84
2022-10-16T12:45:34.957Z,19.68
2022-10-16T12:50:40.350Z,19.60
2022-10-16T12:55:51.231Z,19.53
2022-10-16T13:01:19.367Z,19.47
2022-10-16T13:06:48.639Z,19.43
2022-10-16T13:12:06.658Z,19.38
2022-10-16T13:17:28.101Z,19.38
2022-10-16T13:22:42.663Z,19.37
2022-10-16T13:28:07.674Z,19.36
2022-10-16T13:33:22.157Z,19.35
2022-10-16T13:38:33.092Z,19.30
2022-10-16T13:43:57.609Z,19.27
2022-10-16T13:49:04.125Z,19.26
2022-10-16T13:54:12.566Z,19.26
2022-10-16T13:59:27.886Z,19.24
2022-10-16T14:04:33.345Z,19.25
2022-10-16T14:09:37.584Z,19.24
2022-10-16T14:14:43.642Z,19.27
2022-10-16T14:19:54.751Z,19.28
2022-10-16T14:25:02.194Z,19.29
2022-10-16T14:30:25.353Z,19.25
2022-10-16T14:35:28.049Z,19.23
2022-10-16T14:40:33.564Z,19.20
2022-10-16T14:45:36.875Z,19.15
2022-10-16T14:50:40.000Z,19.12
2022-10-16T14:55:43.408Z,19.07
2022-10-16T15:00:46.854Z,18.98
2022-10-16T15:05:49.598Z,18.91
2022-10-16T15:10:52.620Z,18.83
2022-10-16T15:15:55.591Z,18.65
2022-10-16T15:20:58.269Z,18.34
2022-10-16T15:26:01.271Z,18.08
2022-10-16T15:31:05.465Z,17.82
2022-10-16T15:36:08.903Z,17.52
2022-10-16T15:41:12.769Z,17.27
2022-10-16T15:46:16.329Z,17.02
2022-10-16T15:51:20.095Z,16.79
2022-10-16T15:56:23.420Z,16.54
2022-10-16T16:01:27.118Z,16.21
2022-10-16T16:06:30.566Z,15.97
2022-10-16T16:11:38.601Z,15.69
2022-10-16T16:16:42.435Z,15.46
2022-10-16T16:21:45.496Z,15.18
2022-10-16T16:26:48.361Z,14.96
2022-10-16T16:31:51.226Z,14.78
2022-10-16T16:36:54.990Z,14.55
2022-10-16T16:41:59.566Z,14.42
2022-10-16T16:47:03.093Z,14.29
2022-10-16T16:52:05.718Z,14.12
2022-10-16T16:57:08.653Z,13.95
2022-10-16T17:02:11.402Z,13.81
2022-10-16T17:07:14.389Z,13.65
2022-10-16T17:12:17.504Z,13.53
2022-10-16T17:17:20.345Z,13.39
2022-10-16T17:22:23.010Z,13.28
2022-10-16T17:27:25.965Z,13.18
2022-10-16T17:32:28.939Z,13.14
2022-10-16T17:37:33.531Z,13.04
2022-10-16T17:42:36.933Z,12.97
2022-10-16T17:47:41.877Z,12.85
2022-10-16T17:52:45.181Z,12.81
2022-10-16T17:57:48.147Z,12.74
2022-10-16T18:02:51.078Z,12.69
2022-10-16T18:07:58.379Z,12.51
2022-10-16T18:13:01.875Z,12.51
2022-10-16T18:18:04.938Z,12.36
2022-10-16T18:23:07.567Z,12.33
2022-10-16T18:28:10.421Z,12.27
2022-10-16T18:33:15.604Z,12.17
2022-10-16T18:38:18.640Z,12.09
2022-10-16T18:43:21.530Z,12.05
2022-10-16T18:48:25.245Z,11.99
2022-10-16T18:58:31.977Z,11.88
2022-10-16T19:03:35.344Z,11.81
2022-10-16T19:08:39.021Z,11.73
2022-10-16T19:13:43.042Z,11.66
2022-10-16T19:18:46.429Z,11.59
2022-10-16T19:23:53.496Z,11.50
2022-10-16T19:28:58.878Z,11.39
2022-10-16T19:34:03.479Z,11.31
2022-10-16T19:39:17.640Z,11.24
2022-10-16T19:44:20.467Z,11.15
2022-10-16T19:49:23.179Z,11.13
2022-10-16T19:54:27.384Z,11.08
2022-10-16T19:59:30.441Z,11.03
2022-10-16T20:04:33.240Z,10.95
2022-10-16T20:09:36.255Z,10.90
2022-10-16T20:14:39.050Z,10.82
2022-10-16T20:19:41.871Z,10.79
2022-10-16T20:24:44.734Z,10.73
2022-10-16T20:29:47.339Z,10.72
2022-10-16T20:34:50.426Z,10.67
2022-10-16T20:39:53.226Z,10.65
2022-10-16T20:44:55.969Z,10.61
2022-10-16T20:49:58.553Z,10.60
2022-10-16T20:55:01.440Z,10.62
2022-10-16T21:00:08.236Z,10.66
2022-10-16T21:05:11.100Z,10.69
2022-10-16T21:10:14.114Z,10.69
2022-10-16T21:15:16.917Z,10.68
2022-10-16T21:20:19.700Z,10.69
2022-10-16T21:25:22.488Z,10.69
2022-10-16T21:30:25.683Z,10.68
2022-10-16T21:35:30.612Z,10.63
2022-10-16T21:40:34.045Z,10.55
2022-10-16T21:45:36.706Z,10.45
2022-10-16T21:50:39.311Z,10.38
2022-10-16T21:55:42.660Z,10.31
2022-10-16T22:00:45.422Z,10.20
2022-10-16T22:05:48.455Z,10.13
2022-10-16T22:10:51.225Z,10.12
2022-10-16T22:15:56.060Z,10.07
2022-10-16T22:20:59.172Z,10.05
2022-10-16T22:26:04.604Z,10.02
2022-10-16T22:31:14.875Z,9.99
2022-10-16T22:36:17.747Z,9.96
2022-10-16T22:41:21.373Z,9.91
2022-10-16T22:46:26.660Z,9.87
2022-10-16T22:51:29.564Z,9.85
2022-10-16T22:56:32.370Z,9.79
2022-10-16T23:01:40.905Z,9.75
2022-10-16T23:06:43.724Z,9.68
2022-10-16T23:11:46.575Z,9.56
2022-10-16T23:16:49.965Z,9.51
2022-10-16T23:21:52.788Z,9.48
2022-10-16T23:26:55.526Z,9.44
2022-10-16T23:31:58.519Z,9.44
2022-10-16T23:37:03.801Z,9.48
2022-10-16T23:42:06.617Z,9.47
2022-10-16T23:47:09.256Z,9.44
2022-10-16T23:52:11.974Z,9.46
2022-10-16T23:57:15.387Z,9.45
